Rosston, TX (76263)

4:19 PM CDT on September 01, 2014 (GMT -0500)
Thomsen | Change Station
CLOSE
Current Station
Personal Weather Station
Location: Forestburg, TX
Elevation: 921 ft
Nearby Weather Stations

Elev 921 ft 33.44 °N, 97.56 °W | Updated 4 minutes ago

Clear
Clear
94.0 °F
Feels Like 91 °F
N
5.0
Wind Variable Wind from SSE

Today
High -- | Low -- °F
--% Chance of Precip.
Yesterday
High -- | Low -- °F
Precip. -- in
7:03 AM 7:55 PM
Waxing Crescent, 44% visible
Pressure 29.86 in
Visibility 10.0 miles
Clouds Clear
Heat Index 91 °F
Dew Point 48 °F
Humidity 21%
Rainfall 0.00 in
Snow Depth Not available.
UV 7 out of 12
Pollen 11.20 out of 12
Air Quality Not available.
Flu Activity Not available.
METAR KLUD 012055Z AUTO 17015G20KT 10SM CLR 35/19 A2986 RMK AO2 T03450190

More Conditions Fewer Conditions

Pressure 29.86 in
Visibility 10.0 miles
Clouds Clear
Heat Index 91 °F
Dew Point 48 °F
Humidity 21%
Rainfall 0.00 in
Snow Depth Not available.
UV 7 out of 12
Pollen 11.20 out of 12
Air Quality Not available.
Flu Activity Not available.
METAR KLUD 012055Z AUTO 17015G20KT 10SM CLR 35/19 A2986 RMK AO2 T03450190

More Conditions Fewer Conditions

10-Day Weather Forecast

Almanac

Astronomy

Sep. 01, 2014 Rise Set
Actual Time 7:03 AM CDT 7:55 PM CDT
Civil Twilight 6:38 AM CDT 8:20 PM CDT
Nautical Twilight 6:08 AM CDT 8:50 PM CDT
Astronomical Twilight 5:37 AM CDT 9:20 PM CDT
Moon 1:31 PM CDT No Moon Set
Length of Visible Light 13h 41m
Length of Day
12h 51m
Tomorrow will be 1m 59s shorter.
Waxing Crescent, 44% of the Moon is Illuminated
Today
Waxing Crescent
Sep 2
First Quarter
Sep 8
Full
Sep 15
Last Quarter
Sep 24
New

Today's Extremes

State Highs State Lows

Community

WunderPhotos

Upload Photos

1,749,409 photos uploaded!

WunderBlogs® & News

Nearby

Snow Depth

Station Depth Elevation
No new snow has been reported.

Earthquake Activity

City Distance Mag. Time & Date
No recent earthquake activity has been reported nearby.
Minimum magnitude displayed is 2.5.

Coastal Water Temperatures

Place Temperature
No Stations Reporting

Nearby Weather Stations